Time;durP1;ratioP1;P1;durP2;ratioP2;P2;SDS_P1;SDS_P2;PMS_P1;PMS_P2;Temp;Humidity;BMP_temperature;BMP_pressure;BME280_temperature;BME280_humidity;BME280_pressure;Samples;Min_cycle;Max_cycle;Signal;HPM_P1;HPM_P2
2023/04/10 00:01:17;;;;;;;9.10;7.10;;;;;;;9.02;93.13;101492.98;105662;1255;97875;-79
2023/04/10 00:04:04;;;;;;;10.40;6.90;;;;;;;8.97;92.97;101490.81;105646;1255;102087;-79
2023/04/10 00:06:50;;;;;;;8.90;7.20;;;;;;;8.92;93.07;101492.12;105594;1255;99160;-79
2023/04/10 00:09:36;;;;;;;9.50;7.40;;;;;;;8.89;92.90;101492.52;105614;1255;98372;-80
2023/04/10 00:12:21;;;;;;;11.30;7.40;;;;;;;8.84;93.47;101494.20;105691;1261;98376;-81
2023/04/10 00:15:07;;;;;;;9.00;6.70;;;;;;;8.81;93.84;101494.17;105707;1258;98480;-76
2023/04/10 00:17:54;;;;;;;10.20;6.80;;;;;;;8.76;93.36;101493.13;105651;1260;102639;-78
2023/04/10 00:20:39;;;;;;;10.70;7.80;;;;;;;8.70;93.23;101486.27;105597;1259;99057;-77
2023/04/10 00:23:25;;;;;;;9.20;7.60;;;;;;;8.67;93.39;101485.48;105590;1255;97974;-79
2023/04/10 00:26:10;;;;;;;12.50;9.20;;;;;;;8.64;94.16;101484.01;105642;1258;101555;-78
2023/04/10 00:28:57;;;;;;;10.70;8.00;;;;;;;8.61;94.36;101481.85;105924;1255;97907;-77
2023/04/10 00:31:42;;;;;;;13.60;8.60;;;;;;;8.57;94.34;101483.81;105617;1258;103053;-78
2023/04/10 00:34:28;;;;;;;13.60;8.60;;;;;;;8.54;94.48;101484.96;105601;1260;100598;-78
2023/04/10 00:37:14;;;;;;;10.30;7.50;;;;;;;8.51;94.34;101486.49;105690;1259;98795;-78
2023/04/10 00:39:59;;;;;;;12.20;7.70;;;;;;;8.48;94.16;101482.34;105477;1255;97974;-77
2023/04/10 00:42:44;;;;;;;13.20;8.10;;;;;;;8.46;93.79;101484.33;105610;1260;98050;-78
2023/04/10 00:45:30;;;;;;;11.90;8.80;;;;;;;8.43;93.43;101490.38;105516;1261;101435;-77
2023/04/10 00:48:16;;;;;;;12.40;8.70;;;;;;;8.37;93.14;101489.65;105566;1255;99411;-79
2023/04/10 00:51:02;;;;;;;11.20;8.20;;;;;;;8.33;92.80;101490.80;105618;1256;97868;-79
2023/04/10 00:53:52;;;;;;;13.40;9.40;;;;;;;8.29;92.72;101490.66;105570;1255;99237;-79
2023/04/10 00:56:39;;;;;;;18.60;11.20;;;;;;;8.26;93.01;101491.52;105554;1253;97871;-78
2023/04/10 00:59:25;;;;;;;18.00;10.50;;;;;;;8.22;92.96;101497.45;105645;1255;102265;-78
2023/04/10 01:02:11;;;;;;;13.20;8.80;;;;;;;8.18;93.13;101494.54;105556;1256;99012;-77
2023/04/10 01:04:57;;;;;;;14.90;9.40;;;;;;;8.15;93.44;101488.99;105581;1256;99072;-77
2023/04/10 01:08:36;;;;;;;12.10;8.40;;;;;;;8.09;92.91;101491.36;105593;1254;97984;-78
2023/04/10 01:11:30;;;;;;;9.80;8.20;;;;;;;8.02;92.87;101492.09;105247;1259;98544;-79
2023/04/10 01:14:32;;;;;;;12.20;8.20;;;;;;;7.95;92.62;101491.34;105372;1255;101297;-77
2023/04/10 01:17:39;;;;;;;10.40;7.00;;;;;;;7.89;92.58;101490.15;105636;1258;100552;-80
2023/04/10 01:20:28;;;;;;;9.60;6.40;;;;;;;7.83;92.40;101487.17;105574;1258;97975;-77
2023/04/10 01:23:45;;;;;;;7.70;6.00;;;;;;;7.77;92.67;101487.56;105598;1256;98495;-79
2023/04/10 01:26:46;;;;;;;10.20;6.00;;;;;;;7.71;92.19;101491.75;105506;1258;97752;-79
2023/04/10 01:29:35;;;;;;;11.80;6.50;;;;;;;7.64;91.91;101487.27;105606;1256;102611;-78
2023/04/10 01:32:22;;;;;;;13.20;8.30;;;;;;;7.59;91.65;101487.06;105563;1261;100054;-77
2023/04/10 01:35:10;;;;;;;12.00;7.70;;;;;;;7.54;91.93;101490.69;105534;1260;97969;-76
2023/04/10 01:37:59;;;;;;;12.70;8.30;;;;;;;7.52;92.09;101489.88;105529;1269;98369;-77
2023/04/10 01:40:51;;;;;;;13.00;8.90;;;;;;;7.49;92.25;101490.85;105890;1261;98048;-80
2023/04/10 01:43:48;;;;;;;12.20;8.80;;;;;;;7.47;92.78;101489.03;106298;1261;101449;-79
2023/04/10 01:46:35;;;;;;;11.40;8.50;;;;;;;7.49;93.09;101489.63;105715;1255;99113;-78
2023/04/10 01:49:24;;;;;;;12.10;8.70;;;;;;;7.49;93.36;101490.16;105489;1256;97949;-79
2023/04/10 01:52:15;;;;;;;9.40;7.60;;;;;;;7.48;93.31;101494.45;105552;1261;98054;-78
2023/04/10 01:55:06;;;;;;;10.60;8.40;;;;;;;7.47;92.93;101499.55;105628;1255;97872;-78
2023/04/10 01:58:00;;;;;;;10.70;7.80;;;;;;;7.45;93.06;101500.80;105436;1261;101311;-78
2023/04/10 02:00:45;;;;;;;11.60;8.30;;;;;;;7.44;93.04;101501.83;105561;1260;99207;-78
2023/04/10 02:03:32;;;;;;;11.00;8.60;;;;;;;7.41;92.81;101502.99;105655;1260;98809;-76
2023/04/10 02:06:32;;;;;;;8.40;6.70;;;;;;;7.35;92.53;101502.45;105725;1258;98046;-77
2023/04/10 02:09:27;;;;;;;9.00;7.30;;;;;;;7.30;92.64;101504.40;105578;1260;98041;-78
2023/04/10 02:12:29;;;;;;;11.70;7.80;;;;;;;7.26;92.56;101505.30;105646;1254;102138;-78
2023/04/10 02:15:19;;;;;;;13.00;8.90;;;;;;;7.25;92.81;101506.88;105837;1254;99631;-79
2023/04/10 02:18:05;;;;;;;10.50;7.80;;;;;;;7.24;93.11;101508.84;105586;1262;99028;-78
2023/04/10 02:20:51;;;;;;;11.50;7.00;;;;;;;7.20;92.50;101503.08;106336;1258;97775;-79
2023/04/10 02:23:37;;;;;;;10.40;8.30;;;;;;;7.15;92.24;101508.33;105659;1255;98486;-79
2023/04/10 02:26:22;;;;;;;13.30;9.10;;;;;;;7.13;92.56;101504.63;105475;1260;102729;-78
2023/04/10 02:29:08;;;;;;;13.10;9.50;;;;;;;7.10;92.60;101504.52;105210;1259;100349;-77
2023/04/10 02:31:54;;;;;;;13.60;10.10;;;;;;;7.09;92.40;101506.77;105427;1254;98988;-77
2023/04/10 02:34:42;;;;;;;13.80;10.60;;;;;;;7.07;92.18;101509.98;105579;1260;98567;-79
2023/04/10 02:37:29;;;;;;;14.40;10.90;;;;;;;7.04;92.39;101508.80;105599;1260;98409;-78
2023/04/10 02:40:16;;;;;;;13.30;10.00;;;;;;;7.01;92.54;101507.61;106733;1261;102602;-78
2023/04/10 02:43:08;;;;;;;16.30;10.90;;;;;;;6.98;92.46;101504.84;105555;1259;99117;-78
2023/04/10 02:45:54;;;;;;;13.60;11.10;;;;;;;6.98;93.06;101503.96;105721;1260;97950;-80
2023/04/10 02:48:44;;;;;;;13.80;10.60;;;;;;;6.99;93.12;101504.58;105604;1254;97923;-77
2023/04/10 02:51:34;;;;;;;14.50;10.20;;;;;;;6.97;92.89;101503.97;105555;1260;97949;-76
2023/04/10 02:54:21;;;;;;;13.10;10.70;;;;;;;6.95;93.37;101506.26;105479;1261;102051;-77
2023/04/10 02:57:07;;;;;;;12.60;9.90;;;;;;;6.94;93.65;101505.14;105489;1255;99226;-77
2023/04/10 02:59:53;;;;;;;13.90;10.50;;;;;;;6.90;93.71;101509.23;105569;1259;98974;-77
2023/04/10 03:02:40;;;;;;;12.10;9.30;;;;;;;6.87;94.21;101505.91;105514;1259;98059;-78
2023/04/10 03:05:33;;;;;;;15.00;10.50;;;;;;;6.86;93.80;101504.55;105336;1260;98484;-78
2023/04/10 03:08:19;;;;;;;13.20;9.90;;;;;;;6.86;93.55;101501.63;105339;1260;102062;-77
2023/04/10 03:11:07;;;;;;;14.50;10.10;;;;;;;6.85;93.35;101502.23;105433;1261;100332;-78
2023/04/10 03:13:52;;;;;;;16.70;12.00;;;;;;;6.83;93.40;101502.38;105693;1258;98395;-80
2023/04/10 03:16:38;;;;;;;17.90;11.70;;;;;;;6.84;94.02;101500.30;106209;1260;97965;-77
2023/04/10 03:19:25;;;;;;;15.40;10.90;;;;;;;6.85;94.48;101498.29;105557;1260;98037;-77
2023/04/10 03:22:11;;;;;;;13.40;9.60;;;;;;;6.87;94.67;101498.34;105537;1261;103127;-77
2023/04/10 03:24:58;;;;;;;12.00;8.80;;;;;;;6.85;93.96;101502.07;105539;1257;99182;-79
2023/04/10 03:27:44;;;;;;;10.80;9.00;;;;;;;6.80;93.43;101501.09;105495;1262;98451;-78
2023/04/10 03:30:30;;;;;;;12.00;9.10;;;;;;;6.76;93.36;101504.13;105610;1261;98452;-77
2023/04/10 03:33:15;;;;;;;10.70;8.20;;;;;;;6.72;92.99;101499.21;105530;1261;99883;-77
2023/04/10 03:36:01;;;;;;;13.20;8.40;;;;;;;6.67;92.91;101503.86;105459;1260;103136;-76
2023/04/10 03:38:46;;;;;;;9.60;7.70;;;;;;;6.64;92.47;101501.91;105596;1261;100454;-77
2023/04/10 03:41:32;;;;;;;8.60;7.30;;;;;;;6.60;92.47;101508.81;105836;1260;97969;-81
2023/04/10 03:44:18;;;;;;;10.90;7.60;;;;;;;6.56;92.43;101509.71;106099;1256;98048;-78
2023/04/10 03:47:03;;;;;;;10.80;7.80;;;;;;;6.51;92.07;101512.11;105529;1256;97974;-78
2023/04/10 03:49:50;;;;;;;10.20;7.30;;;;;;;6.45;92.04;101512.10;105559;1259;101488;-77
2023/04/10 03:52:35;;;;;;;11.00;8.20;;;;;;;6.40;91.82;101510.48;105512;1262;99947;-77
2023/04/10 03:55:21;;;;;;;13.40;8.00;;;;;;;6.33;92.06;101512.53;105569;1258;98989;-79
2023/04/10 03:58:08;;;;;;;10.60;8.20;;;;;;;6.28;92.28;101517.29;105444;1256;97875;-78
2023/04/10 04:00:54;;;;;;;11.50;7.40;;;;;;;6.25;92.44;101520.14;105299;1268;100398;-78
2023/04/10 04:03:52;;;;;;;11.10;7.50;;;;;;;6.20;92.48;101521.33;105479;1259;101336;-78
2023/04/10 04:06:47;;;;;;;12.10;8.80;;;;;;;6.15;92.81;101519.41;105328;1259;99089;-77
2023/04/10 04:09:56;;;;;;;13.40;9.40;;;;;;;6.12;92.94;101523.80;105440;1255;98070;-79
2023/04/10 04:13:14;;;;;;;16.10;11.60;;;;;;;6.09;92.96;101528.52;105241;1260;97937;-78
2023/04/10 04:16:23;;;;;;;18.90;11.60;;;;;;;6.07;92.96;101536.33;105436;1260;98386;-79
2023/04/10 04:19:27;;;;;;;17.70;11.30;;;;;;;6.05;93.02;101540.73;105505;1259;102878;-79
2023/04/10 04:22:27;;;;;;;15.60;10.00;;;;;;;6.04;93.36;101544.15;105510;1270;99229;-79
2023/04/10 04:25:17;;;;;;;36.00;9.50;;;;;;;6.04;93.50;101545.64;105474;1259;97971;-76
2023/04/10 04:28:21;;;;;;;13.70;9.60;;;;;;;6.00;93.38;101547.91;105454;1259;97960;-76
2023/04/10 04:31:18;;;;;;;15.60;10.20;;;;;;;5.98;93.47;101546.31;105189;1263;98496;-75
2023/04/10 04:34:26;;;;;;;15.50;11.20;;;;;;;6.00;93.73;101548.26;105517;1267;102284;-78
2023/04/10 04:37:27;;;;;;;18.10;11.00;;;;;;;6.02;93.62;101552.17;105668;1260;100424;-79
2023/04/10 04:40:31;;;;;;;15.90;10.70;;;;;;;6.03;93.78;101554.71;105582;1260;99263;-80
2023/04/10 04:43:39;;;;;;;16.30;10.60;;;;;;;6.06;94.13;101558.41;105677;1260;98022;-77
2023/04/10 04:47:03;;;;;;;20.10;11.10;;;;;;;6.09;94.44;101559.69;105243;1262;99116;-80
2023/04/10 04:50:04;;;;;;;16.40;11.40;;;;;;;6.13;94.75;101556.30;105225;1264;102347;-80
2023/04/10 04:53:08;;;;;;;22.40;12.40;;;;;;;6.16;94.60;101558.92;105657;1261;100388;-79
2023/04/10 04:56:19;;;;;;;17.20;11.00;;;;;;;6.19;94.81;101556.53;105547;1261;98756;-80
2023/04/10 04:59:24;;;;;;;16.60;9.90;;;;;;;6.21;94.92;101556.86;105573;1261;97934;-79
2023/04/10 05:02:29;;;;;;;14.30;10.40;;;;;;;6.22;95.14;101561.35;105509;1259;98483;-78
2023/04/10 05:05:50;;;;;;;18.00;10.30;;;;;;;6.21;95.17;101565.02;105343;1268;101461;-78
2023/04/10 05:08:36;;;;;;;14.30;10.50;;;;;;;6.15;95.15;101569.48;105343;1260;100371;-78
2023/04/10 05:11:41;;;;;;;12.40;9.00;;;;;;;6.13;95.51;101567.73;105461;1260;99556;-77
2023/04/10 05:14:52;;;;;;;13.20;9.20;;;;;;;6.10;95.83;101570.83;105264;1261;97956;-79
2023/04/10 05:17:51;;;;;;;12.90;9.20;;;;;;;6.04;96.14;101572.73;105463;1260;98435;-80
2023/04/10 05:21:00;;;;;;;14.70;9.60;;;;;;;6.01;96.81;101569.79;105701;1260;101333;-78
2023/04/10 05:24:15;;;;;;;14.00;9.70;;;;;;;5.99;97.69;101569.98;105182;1261;100338;-78
2023/04/10 05:27:09;;;;;;;17.90;10.50;;;;;;;6.00;98.70;101572.70;105424;1260;97913;-77
2023/04/10 05:30:20;;;;;;;14.90;9.90;;;;;;;6.05;99.34;101571.73;105403;1269;99251;-77
2023/04/10 05:33:25;;;;;;;14.60;10.20;;;;;;;6.15;99.84;101572.08;105336;1259;97760;-77
2023/04/10 05:36:27;;;;;;;14.30;9.90;;;;;;;6.29;100.00;101577.29;105239;1257;101347;-76
2023/04/10 05:39:22;;;;;;;16.40;11.20;;;;;;;6.43;100.00;101582.21;105292;1261;99952;-77
2023/04/10 05:42:17;;;;;;;16.80;11.20;;;;;;;6.57;100.00;101583.40;105321;1260;98948;-78
2023/04/10 05:45:13;;;;;;;21.30;12.90;;;;;;;6.72;100.00;101580.33;105275;1260;98651;-77
2023/04/10 05:48:13;;;;;;;16.90;12.40;;;;;;;6.86;100.00;101577.23;105557;1264;98536;-79
2023/04/10 05:51:18;;;;;;;20.20;12.90;;;;;;;7.00;100.00;101574.65;105700;1254;102218;-78
2023/04/10 05:54:23;;;;;;;22.10;13.90;;;;;;;7.16;100.00;101576.27;105742;1264;99078;-79
2023/04/10 05:57:26;;;;;;;21.90;14.60;;;;;;;7.32;100.00;101576.17;105804;1260;98071;-82
2023/04/10 06:00:24;;;;;;;21.60;14.50;;;;;;;7.46;100.00;101570.89;106364;1258;97919;-79
2023/04/10 06:03:39;;;;;;;24.00;15.20;;;;;;;7.63;100.00;101569.63;106798;1259;98475;-81
2023/04/10 06:06:25;;;;;;;24.80;16.30;;;;;;;7.78;100.00;101570.84;105950;1272;101372;-76
2023/04/10 06:09:10;;;;;;;21.40;15.40;;;;;;;7.93;100.00;101565.56;105810;1260;99227;-76
2023/04/10 06:11:56;;;;;;;23.70;16.40;;;;;;;8.07;100.00;101562.41;105787;1257;98635;-77
2023/04/10 06:14:41;;;;;;;23.40;17.10;;;;;;;8.20;100.00;101564.02;105682;1261;97971;-78
2023/04/10 06:17:27;;;;;;;23.20;16.70;;;;;;;8.32;100.00;101565.29;106388;1257;98405;-79
2023/04/10 06:20:13;;;;;;;19.60;15.10;;;;;;;8.44;100.00;101568.58;105997;1257;102338;-82
2023/04/10 06:22:58;;;;;;;22.90;16.20;;;;;;;8.54;100.00;101565.86;105814;1257;99707;-85
2023/04/10 06:25:44;;;;;;;19.60;15.20;;;;;;;8.64;100.00;101575.13;105924;1258;97983;-76
2023/04/10 06:28:29;;;;;;;24.60;15.40;;;;;;;8.75;100.00;101574.54;105507;1254;98043;-76
2023/04/10 06:31:23;;;;;;;20.10;14.30;;;;;;;8.84;100.00;101576.95;105471;1260;97870;-74
2023/04/10 06:34:09;;;;;;;20.90;14.60;;;;;;;8.90;100.00;101578.73;105366;1257;101359;-75
2023/04/10 06:36:55;;;;;;;20.30;14.50;;;;;;;9.02;100.00;101577.17;105272;1261;101441;-74
2023/04/10 06:39:41;;;;;;;18.60;15.00;;;;;;;9.13;100.00;101576.03;105292;1260;97999;-82
2023/04/10 06:42:26;;;;;;;19.80;14.10;;;;;;;9.24;100.00;101572.39;106138;1260;97872;-80
2023/04/10 06:45:15;;;;;;;19.70;13.90;;;;;;;9.37;100.00;101571.36;106760;1260;97987;-78
2023/04/10 06:48:01;;;;;;;20.80;12.90;;;;;;;9.46;100.00;101569.67;105635;1260;102588;-79
2023/04/10 06:50:46;;;;;;;18.70;13.60;;;;;;;9.57;100.00;101567.70;105666;1260;99054;-77
2023/04/10 06:53:32;;;;;;;17.00;12.00;;;;;;;9.69;100.00;101568.71;105527;1254;98443;-79
2023/04/10 06:56:18;;;;;;;16.10;12.90;;;;;;;9.81;100.00;101570.30;105667;1260;97897;-75
2023/04/10 06:59:04;;;;;;;14.20;11.80;;;;;;;9.94;100.00;101571.80;105263;1254;98600;-76
2023/04/10 07:01:49;;;;;;;17.30;11.80;;;;;;;10.06;100.00;101573.95;105309;1260;101334;-75
2023/04/10 07:04:35;;;;;;;16.70;11.70;;;;;;;10.15;100.00;101574.21;105382;1254;99237;-76
2023/04/10 07:07:20;;;;;;;15.20;11.90;;;;;;;10.27;100.00;101575.27;105375;1259;97991;-78
2023/04/10 07:10:07;;;;;;;15.90;12.00;;;;;;;10.42;100.00;101575.34;105332;1260;97898;-75
2023/04/10 07:12:52;;;;;;;13.90;10.90;;;;;;;10.57;100.00;101572.48;105267;1257;99190;-76
2023/04/10 07:15:38;;;;;;;13.80;11.30;;;;;;;10.73;100.00;101572.29;105390;1254;101461;-76
2023/04/10 07:18:24;;;;;;;17.10;11.70;;;;;;;10.90;100.00;101575.86;105467;1257;99123;-86
2023/04/10 07:21:13;;;;;;;11.80;9.90;;;;;;;11.06;100.00;101579.52;105500;1256;97969;-77
2023/04/10 07:23:58;;;;;;;17.30;10.40;;;;;;;11.20;100.00;101582.92;105379;1269;97983;-79
2023/04/10 07:26:45;;;;;;;13.10;9.90;;;;;;;11.32;100.00;101586.52;105577;1258;98469;-82
2023/04/10 07:29:30;;;;;;;13.70;9.10;;;;;;;11.43;100.00;101587.09;105469;1261;101368;-79
2023/04/10 07:32:16;;;;;;;14.30;9.90;;;;;;;11.54;100.00;101585.22;105512;1257;101023;-78
2023/04/10 07:35:02;;;;;;;12.20;9.40;;;;;;;11.66;100.00;101583.88;105310;1257;98412;-76
2023/04/10 07:37:50;;;;;;;17.20;9.60;;;;;;;11.80;100.00;101581.28;105255;1258;97993;-77
2023/04/10 07:40:36;;;;;;;12.10;8.80;;;;;;;11.96;100.00;101580.55;105282;1257;98482;-80
2023/04/10 07:43:22;;;;;;;11.70;8.80;;;;;;;12.06;100.00;101579.11;105601;1260;102622;-78
2023/04/10 07:46:07;;;;;;;13.70;8.30;;;;;;;12.15;100.00;101579.38;105603;1260;100901;-77
2023/04/10 07:48:54;;;;;;;15.90;9.40;;;;;;;12.24;100.00;101575.48;105421;1260;99021;-79
2023/04/10 07:51:39;;;;;;;11.70;8.50;;;;;;;12.35;100.00;101574.87;105364;1261;98000;-77
2023/04/10 07:54:25;;;;;;;9.60;8.10;;;;;;;12.46;100.00;101578.52;105349;1258;98577;-76
2023/04/10 07:57:10;;;;;;;10.90;7.30;;;;;;;12.53;99.87;101580.27;105666;1255;101347;-79
2023/04/10 07:59:56;;;;;;;11.50;7.90;;;;;;;12.60;99.05;101583.11;105719;1258;99069;-78
2023/04/10 08:02:42;;;;;;;12.30;8.80;;;;;;;12.68;98.23;101580.80;105900;1260;99493;-77
2023/04/10 08:05:28;;;;;;;10.30;7.20;;;;;;;12.74;98.30;101575.38;105409;1260;99228;-78
2023/04/10 08:08:15;;;;;;;9.20;7.20;;;;;;;12.82;97.57;101576.10;105474;1256;98400;-77
2023/04/10 08:11:01;;;;;;;9.40;6.90;;;;;;;12.89;96.97;101577.06;105292;1257;101342;-76
2023/04/10 08:13:46;;;;;;;11.40;7.60;;;;;;;12.98;97.29;101574.34;105296;1261;99073;-75
2023/04/10 08:16:34;;;;;;;8.70;7.10;;;;;;;13.07;97.17;101572.39;105378;1259;98956;-76
2023/04/10 08:19:20;;;;;;;10.70;8.20;;;;;;;13.15;95.77;101573.83;105246;1260;97979;-80
2023/04/10 08:22:05;;;;;;;13.80;7.90;;;;;;;13.22;95.79;101567.60;105755;1257;98504;-76
2023/04/10 08:24:51;;;;;;;8.70;7.10;;;;;;;13.34;96.03;101571.89;105352;1260;101911;-76
2023/04/10 08:27:36;;;;;;;9.10;6.80;;;;;;;13.47;94.56;101573.97;105232;1268;100341;-84
2023/04/10 08:30:22;;;;;;;11.20;6.40;;;;;;;13.49;93.40;101570.81;105138;1256;98039;-75
2023/04/10 08:33:08;;;;;;;9.60;6.20;;;;;;;13.52;92.85;101571.23;105287;1260;97958;-77
2023/04/10 08:35:53;;;;;;;8.80;6.40;;;;;;;13.48;91.85;101570.96;105372;1258;97859;-78
2023/04/10 08:38:39;;;;;;;11.10;6.10;;;;;;;13.42;91.17;101571.11;105601;1257;101371;-80
2023/04/10 08:41:25;;;;;;;7.30;5.30;;;;;;;13.39;90.14;101568.31;105954;1260;100433;-79
2023/04/10 08:44:11;;;;;;;6.50;5.20;;;;;;;13.37;89.30;101570.35;105148;1257;97929;-77
2023/04/10 08:46:58;;;;;;;10.20;5.40;;;;;;;13.38;88.99;101570.14;105459;1259;98567;-76
2023/04/10 08:49:55;;;;;;;8.60;5.80;;;;;;;13.37;88.42;101565.88;105768;1261;98455;-77
2023/04/10 08:52:45;;;;;;;7.80;6.20;;;;;;;13.41;88.96;101560.45;105307;1260;101368;-75
2023/04/10 08:55:30;;;;;;;9.90;5.90;;;;;;;13.53;88.68;101556.95;105490;1260;99178;-76
2023/04/10 08:58:16;;;;;;;7.20;6.00;;;;;;;13.62;88.60;101559.46;105229;1260;98028;-75
2023/04/10 09:01:04;;;;;;;9.60;6.00;;;;;;;13.68;88.06;101558.72;105224;1260;98489;-75
2023/04/10 09:03:50;;;;;;;7.70;5.80;;;;;;;13.78;88.08;101558.21;105217;1260;98439;-76
2023/04/10 09:06:35;;;;;;;7.50;5.60;;;;;;;13.89;87.83;101557.92;105233;1260;102563;-77
2023/04/10 09:09:21;;;;;;;6.50;4.50;;;;;;;14.03;87.72;101554.45;105359;1254;99073;-76
2023/04/10 09:12:06;;;;;;;5.60;4.60;;;;;;;14.17;87.12;101553.60;105117;1260;98968;-76
2023/04/10 09:14:52;;;;;;;6.60;5.50;;;;;;;14.27;86.55;101552.10;105290;1260;97981;-76
2023/04/10 09:17:54;;;;;;;6.30;4.80;;;;;;;14.34;85.56;101548.67;105300;1260;98476;-77
2023/04/10 09:20:39;;;;;;;8.50;5.00;;;;;;;14.35;85.17;101550.48;105634;1254;102380;-77
2023/04/10 09:23:24;;;;;;;7.10;4.90;;;;;;;14.44;85.45;101551.50;105393;1260;99081;-79
2023/04/10 09:26:33;;;;;;;7.80;4.60;;;;;;;14.52;84.90;101552.98;105559;1260;99265;-77
2023/04/10 09:29:19;;;;;;;5.40;4.80;;;;;;;14.59;84.27;101549.07;105534;1257;97868;-78
2023/04/10 09:32:04;;;;;;;10.30;5.40;;;;;;;14.62;83.26;101547.90;105280;1257;98493;-77
2023/04/10 09:34:56;;;;;;;7.00;4.70;;;;;;;14.69;83.35;101542.13;105404;1257;101328;-77
2023/04/10 09:37:43;;;;;;;;;;;;;;;14.74;82.43;101538.61;105172;1260;100326;-77
2023/04/10 09:40:29;;;;;;;6.30;4.80;;;;;;;14.75;82.04;101537.55;105322;1254;97876;-77
2023/04/10 09:43:26;;;;;;;5.50;4.80;;;;;;;14.77;82.33;101529.77;105236;1255;97954;-77
2023/04/10 09:46:27;;;;;;;9.30;4.40;;;;;;;14.81;82.44;101526.70;105516;1258;104342;-84
2023/04/10 09:49:13;;;;;;;6.50;4.00;;;;;;;14.86;81.72;101528.41;106141;1257;101346;-77
2023/04/10 09:51:58;;;;;;;5.10;4.00;;;;;;;14.90;81.09;101522.89;105327;1255;99835;-76
2023/04/10 09:54:44;;;;;;;6.90;3.60;;;;;;;14.92;81.03;101523.20;105290;1259;98953;-76
2023/04/10 09:57:32;;;;;;;6.30;3.80;;;;;;;14.97;80.68;101526.15;105285;1257;98443;-77
2023/04/10 10:00:19;;;;;;;6.80;3.60;;;;;;;15.03;79.43;101525.91;105393;1257;97957;-77
2023/04/10 10:03:07;;;;;;;6.70;4.40;;;;;;;15.03;78.89;101521.02;105557;1255;101347;-83
2023/04/10 10:05:53;;;;;;;4.40;3.60;;;;;;;15.03;78.37;101514.38;106369;1260;100346;-82
2023/04/10 10:08:39;;;;;;;7.10;3.80;;;;;;;15.04;78.30;101512.64;106280;1257;98966;-85
2023/04/10 10:11:25;;;;;;;6.90;4.40;;;;;;;15.05;77.91;101511.59;106100;1263;97977;-84
2023/04/10 10:14:17;;;;;;;4.70;3.50;;;;;;;15.04;77.31;101508.80;106014;1257;97957;-83
2023/04/10 10:17:09;;;;;;;6.00;4.10;;;;;;;15.01;77.09;101507.77;106099;1256;101401;-79
2023/04/10 10:20:08;;;;;;;9.70;5.20;;;;;;;14.91;76.53;101502.18;106356;1258;99936;-79
2023/04/10 10:22:57;;;;;;;6.30;4.50;;;;;;;14.88;77.44;101499.05;105429;1260;99313;-78
2023/04/10 10:25:44;;;;;;;6.40;4.10;;;;;;;14.99;78.78;101497.75;105608;1260;97983;-77
2023/04/10 10:28:30;;;;;;;5.20;3.50;;;;;;;15.09;77.84;101491.48;106331;1257;97921;-77
2023/04/10 10:31:17;;;;;;;7.40;4.00;;;;;;;15.05;76.96;101493.20;105405;1260;102602;-79
2023/04/10 10:34:04;;;;;;;9.40;3.50;;;;;;;15.01;76.51;101489.87;105407;1257;100035;-80
2023/04/10 10:36:49;;;;;;;8.30;3.90;;;;;;;15.06;76.43;101489.31;105307;1256;98959;-79
2023/04/10 10:39:56;;;;;;;6.00;3.80;;;;;;;15.16;76.62;101481.20;105352;1258;98913;-78
2023/04/10 10:42:49;;;;;;;7.00;3.70;;;;;;;15.27;76.31;101478.22;105424;1257;98406;-77
2023/04/10 10:46:00;;;;;;;4.30;3.10;;;;;;;15.26;74.75;101476.84;105468;1254;109958;-79
2023/04/10 10:48:56;;;;;;;;;;;;;;;15.21;74.57;101474.98;105499;1257;100660;-78
2023/04/10 10:51:43;;;;;;;5.80;3.20;;;;;;;15.28;75.04;101475.70;105221;1258;99558;-77
2023/04/10 10:54:31;;;;;;;4.40;3.50;;;;;;;15.28;73.95;101470.63;105554;1271;97891;-81
2023/04/10 10:57:45;;;;;;;5.30;3.20;;;;;;;15.26;73.61;101462.44;106337;1256;97796;-81
2023/04/10 11:00:49;;;;;;;6.60;3.80;;;;;;;15.35;73.50;101464.33;105489;1260;101385;-79
2023/04/10 11:03:36;;;;;;;6.50;3.50;;;;;;;15.47;72.57;101462.61;106200;1260;100346;-80
2023/04/10 11:06:48;;;;;;;5.80;3.50;;;;;;;15.49;72.37;101460.23;105692;1260;97950;-79
2023/04/10 11:09:50;;;;;;;5.40;3.30;;;;;;;15.44;72.09;101456.32;105733;1260;98724;-85
2023/04/10 11:13:14;;;;;;;6.10;3.70;;;;;;;15.42;72.27;101455.00;105981;1260;98072;-79
2023/04/10 11:16:02;;;;;;;5.40;3.40;;;;;;;15.36;72.07;101447.27;105917;1256;101593;-80
2023/04/10 11:18:48;;;;;;;5.90;3.60;;;;;;;15.35;72.79;101447.63;105694;1257;100911;-79
2023/04/10 11:21:34;;;;;;;6.00;3.60;;;;;;;15.46;72.70;101440.38;105677;1257;98682;-80
2023/04/10 11:24:19;;;;;;;6.30;3.40;;;;;;;15.57;72.77;101437.75;106284;1260;97957;-79
2023/04/10 11:27:05;;;;;;;7.90;3.70;;;;;;;15.70;72.85;101437.73;105647;1258;98534;-79
2023/04/10 11:29:51;;;;;;;5.90;3.50;;;;;;;15.71;71.46;101437.29;105745;1255;101424;-79
2023/04/10 11:32:44;;;;;;;7.70;3.80;;;;;;;15.64;70.82;101438.63;105668;1254;99829;-79
2023/04/10 11:35:30;;;;;;;6.90;3.20;;;;;;;15.56;70.33;101436.63;105650;1256;97952;-78
2023/04/10 11:38:16;;;;;;;3.80;2.90;;;;;;;15.53;70.53;101430.95;106586;1257;98001;-80
2023/04/10 11:41:05;;;;;;;8.10;3.10;;;;;;;15.51;70.22;101429.73;105638;1255;98450;-79
2023/04/10 11:43:51;;;;;;;6.70;3.50;;;;;;;15.50;70.33;101423.54;105349;1258;102745;-76
2023/04/10 11:46:37;;;;;;;5.00;2.90;;;;;;;15.50;70.41;101416.86;105443;1255;100296;-79
2023/04/10 11:49:26;;;;;;;4.50;3.60;;;;;;;15.53;71.01;101410.42;105912;1258;99497;-78
2023/04/10 11:52:12;;;;;;;6.80;3.20;;;;;;;15.66;72.13;101407.46;105359;1254;97952;-76
2023/04/10 11:54:58;;;;;;;3.80;3.40;;;;;;;15.84;71.70;101406.60;105345;1254;97990;-75
2023/04/10 11:57:44;;;;;;;5.90;2.90;;;;;;;15.98;71.26;101397.30;105469;1258;101281;-77
2023/04/10 12:00:29;;;;;;;5.40;3.30;;;;;;;16.07;70.36;101399.08;105667;1257;99042;-76
2023/04/10 12:03:15;;;;;;;4.00;3.30;;;;;;;16.03;69.56;101396.23;105777;1255;98960;-80
2023/04/10 12:06:02;;;;;;;4.00;3.00;;;;;;;16.00;69.53;101388.80;105960;1255;97926;-77
2023/04/10 12:08:49;;;;;;;5.70;3.40;;;;;;;15.99;69.12;101387.16;105653;1255;98491;-80
2023/04/10 12:11:35;;;;;;;5.00;3.40;;;;;;;15.96;68.91;101387.27;106040;1255;102621;-80
2023/04/10 12:14:22;;;;;;;5.70;3.30;;;;;;;15.97;69.62;101381.50;105478;1255;99232;-79
2023/04/10 12:17:10;;;;;;;7.70;4.20;;;;;;;15.97;69.21;101383.12;106122;1255;98054;-85
2023/04/10 12:19:56;;;;;;;7.40;3.20;;;;;;;15.93;68.65;101377.63;105706;1260;97986;-81
2023/04/10 12:22:44;;;;;;;5.40;3.20;;;;;;;15.90;68.79;101373.45;105967;1255;97960;-78
2023/04/10 12:25:29;;;;;;;5.40;3.20;;;;;;;15.88;68.49;101370.78;105652;1255;102084;-81
2023/04/10 12:28:21;;;;;;;3.60;3.20;;;;;;;15.89;68.78;101369.04;106193;1260;99119;-82
2023/04/10 12:31:11;;;;;;;4.70;3.30;;;;;;;15.94;68.79;101369.93;105944;1257;107651;-77
2023/04/10 12:33:57;;;;;;;3.80;3.20;;;;;;;16.05;68.39;101365.09;105183;1254;97923;-75
2023/04/10 12:36:51;;;;;;;6.80;3.50;;;;;;;16.17;68.10;101358.69;105647;1254;98497;-79
2023/04/10 12:39:37;;;;;;;4.10;2.80;;;;;;;16.22;67.51;101349.92;105625;1255;101387;-80
2023/04/10 12:42:24;;;;;;;4.30;3.10;;;;;;;16.19;67.41;101351.42;105489;1255;99075;-77
2023/04/10 12:45:12;;;;;;;5.50;3.50;;;;;;;16.18;67.20;101347.55;105642;1258;99067;-83
2023/04/10 12:47:58;;;;;;;4.10;3.40;;;;;;;16.22;67.75;101344.68;105766;1257;98040;-77
2023/04/10 12:50:48;;;;;;;3.20;2.90;;;;;;;16.23;67.66;101341.40;105303;1260;98577;-76
2023/04/10 12:53:42;;;;;;;5.00;3.20;;;;;;;16.22;67.30;101339.73;105297;1255;101970;-76
2023/04/10 12:56:39;;;;;;;3.90;2.80;;;;;;;16.19;67.26;101339.48;105342;1256;99099;-75
2023/04/10 12:59:25;;;;;;;8.40;3.50;;;;;;;16.11;66.65;101331.81;105310;1255;98994;-77